createdAt,value
2018-12-27T00:50:39.623Z,2.30
2018-12-27T01:36:22.951Z,2.00
2018-12-27T01:41:57.511Z,2.10
2018-12-27T01:44:46.087Z,2.00
2018-12-27T01:47:34.594Z,2.00
2018-12-27T02:05:30.716Z,1.80
2018-12-27T02:08:19.206Z,1.80
2018-12-27T02:11:06.251Z,1.80
2018-12-27T02:13:52.799Z,1.70
2018-12-27T02:16:38.235Z,1.80
2018-12-27T02:22:26.331Z,1.70
2018-12-27T02:25:14.854Z,1.70
2018-12-27T02:28:01.947Z,1.60
2018-12-27T02:30:48.507Z,1.60
2018-12-27T02:33:35.315Z,1.60
2018-12-27T02:36:20.672Z,1.60
2018-12-27T03:12:47.526Z,1.30
2018-12-27T03:15:17.110Z,1.40
2018-12-27T03:17:46.614Z,1.30
2018-12-27T03:20:16.105Z,1.30
2018-12-27T03:22:45.639Z,1.20
2018-12-27T03:25:15.154Z,1.20
2018-12-27T03:27:44.715Z,1.20
2018-12-27T03:30:14.220Z,1.00
2018-12-27T03:32:43.702Z,1.10
2018-12-27T03:35:13.271Z,1.10
2018-12-27T03:37:42.740Z,1.00
2018-12-27T03:40:12.222Z,1.00
2018-12-27T03:42:41.711Z,0.80
2018-12-27T03:45:11.268Z,0.80
2018-12-27T03:47:40.819Z,0.90
2018-12-27T03:50:10.375Z,0.80
2018-12-27T03:52:39.867Z,0.70
2018-12-27T03:55:09.348Z,0.80
2018-12-27T03:57:38.860Z,0.80
2018-12-27T04:00:27.427Z,0.70
2018-12-27T04:02:56.903Z,0.70
2018-12-27T04:05:26.378Z,0.80
2018-12-27T04:07:55.883Z,0.80
2018-12-27T04:10:25.499Z,0.80
2018-12-27T04:12:54.978Z,0.70
2018-12-27T04:15:24.302Z,0.80
2018-12-27T04:17:53.631Z,0.70
2018-12-27T04:20:22.960Z,0.80
2018-12-27T04:22:52.294Z,0.80
2018-12-27T04:25:21.830Z,0.70
2018-12-27T04:27:51.155Z,0.70
2018-12-27T04:30:20.489Z,0.70
2018-12-27T04:32:50.311Z,0.70
2018-12-27T04:35:19.647Z,0.70
2018-12-27T04:37:48.978Z,0.80
2018-12-27T04:40:18.301Z,0.80
2018-12-27T04:42:47.835Z,0.80
2018-12-27T04:45:17.169Z,0.80
2018-12-27T04:47:46.575Z,0.80
2018-12-27T04:50:15.967Z,0.80
2018-12-27T04:52:45.299Z,0.80
2018-12-27T04:55:14.633Z,0.80
2018-12-27T04:57:44.033Z,0.80
2018-12-27T05:00:32.466Z,0.70
2018-12-27T05:15:22.802Z,0.70
2018-12-27T05:18:11.214Z,0.70
2018-12-27T05:33:00.550Z,0.70
2018-12-27T05:35:48.926Z,0.70
2018-12-27T05:38:18.383Z,0.80
2018-12-27T05:41:06.758Z,0.70
2018-12-27T06:32:59.891Z,0.50
2018-12-27T06:35:48.271Z,0.50
2018-12-27T06:38:36.646Z,0.50
2018-12-27T06:41:05.980Z,0.60
2018-12-27T06:43:54.435Z,0.50
2018-12-27T06:46:42.879Z,0.40
2018-12-27T07:07:57.279Z,0.70
2018-12-27T07:10:45.673Z,0.60
2018-12-27T07:13:34.154Z,0.60
2018-12-27T07:16:18.535Z,0.60
2018-12-27T07:21:56.091Z,0.60
2018-12-27T07:24:25.524Z,0.60
2018-12-27T07:27:13.964Z,0.60
2018-12-27T07:30:02.411Z,0.60
2018-12-27T07:35:37.125Z,0.70
2018-12-27T07:38:25.490Z,0.60
2018-12-27T07:40:54.990Z,0.70
2018-12-27T07:43:24.298Z,0.60
2018-12-27T07:46:12.671Z,0.60
2018-12-27T07:48:42.039Z,0.60
2018-12-27T07:51:11.413Z,0.50
2018-12-27T07:53:40.743Z,0.60
2018-12-27T07:56:10.072Z,0.60
2018-12-27T07:58:39.412Z,0.60
2018-12-27T08:01:08.729Z,0.50
2018-12-27T08:03:38.111Z,0.30
2018-12-27T08:06:07.439Z,0.40
2018-12-27T08:08:55.899Z,0.40
2018-12-27T08:11:25.216Z,0.40
2018-12-27T08:14:13.660Z,0.60
2018-12-27T08:16:42.979Z,0.60
2018-12-27T08:19:31.434Z,0.60
2018-12-27T08:22:19.844Z,0.60
2018-12-27T08:37:17.065Z,0.60
2018-12-27T08:40:05.615Z,0.70
2018-12-27T08:51:50.091Z,0.80
2018-12-27T08:54:38.698Z,0.80
2018-12-27T08:57:27.203Z,0.80
2018-12-27T09:12:17.145Z,1.00
2018-12-27T09:14:46.463Z,1.00
2018-12-27T09:17:15.794Z,1.00
2018-12-27T09:19:45.124Z,1.10
2018-12-27T09:22:14.454Z,1.10
2018-12-27T09:24:43.803Z,1.10
2018-12-27T09:27:13.141Z,1.10
2018-12-27T09:29:42.486Z,1.10
2018-12-27T09:32:11.820Z,1.10
2018-12-27T09:35:00.290Z,1.10
2018-12-27T09:37:29.799Z,1.10
2018-12-27T09:40:18.190Z,1.10
2018-12-27T09:42:47.524Z,1.20
2018-12-27T09:45:35.971Z,1.20
2018-12-27T09:54:15.620Z,1.30
2018-12-27T09:56:45.018Z,1.30
2018-12-27T09:59:14.436Z,1.30
2018-12-27T10:01:43.762Z,1.30
2018-12-27T10:04:32.155Z,1.30
2018-12-27T10:07:01.509Z,1.40
2018-12-27T10:09:30.893Z,1.40
2018-12-27T10:12:19.529Z,1.50
2018-12-27T10:15:08.696Z,1.50
2018-12-27T10:17:38.119Z,1.50
2018-12-27T10:20:26.583Z,1.40
2018-12-27T10:44:32.954Z,1.60
2018-12-27T10:50:08.459Z,1.60
2018-12-27T10:52:56.898Z,1.70
2018-12-27T11:01:36.955Z,1.80
2018-12-27T11:16:10.298Z,1.80
2018-12-27T11:18:39.632Z,1.80
2018-12-27T11:21:09.028Z,1.80
2018-12-27T11:23:57.434Z,1.80
2018-12-27T12:00:23.774Z,1.80
2018-12-27T12:02:53.096Z,1.80
2018-12-27T12:05:41.480Z,1.80
2018-12-27T12:08:29.856Z,1.90
2018-12-27T12:23:20.365Z,1.90
2018-12-27T12:26:08.776Z,1.80
2018-12-27T12:31:36.922Z,1.80
2018-12-27T12:34:25.454Z,1.90
2018-12-27T12:37:14.385Z,1.90
2018-12-27T12:42:33.086Z,1.80
2018-12-27T12:45:21.743Z,1.80
2018-12-27T12:47:51.079Z,1.80
2018-12-27T12:50:39.758Z,1.70
2018-12-27T12:53:09.118Z,1.70
2018-12-27T12:55:57.554Z,1.70
2018-12-27T12:58:26.951Z,1.60
2018-12-27T13:00:56.283Z,1.60
2018-12-27T13:03:44.670Z,1.60
2018-12-27T13:06:18.000Z,1.60
2018-12-27T13:08:45.080Z,1.60
2018-12-27T13:11:14.414Z,1.60
2018-12-27T13:14:02.801Z,1.50
2018-12-27T13:19:51.466Z,1.50
2018-12-27T13:22:39.895Z,1.50
2018-12-27T13:25:09.371Z,1.50
2018-12-27T13:27:38.762Z,1.50
2018-12-27T13:30:08.430Z,1.50
2018-12-27T13:32:37.758Z,1.40
2018-12-27T13:35:07.099Z,1.50
2018-12-27T13:37:55.486Z,1.50
2018-12-27T13:40:24.802Z,1.50
2018-12-27T13:43:13.322Z,1.50
2018-12-27T13:45:42.665Z,1.40
2018-12-27T13:54:22.151Z,1.40
2018-12-27T13:57:10.566Z,1.40
2018-12-27T14:21:16.158Z,1.20
2018-12-27T14:24:04.605Z,1.30
2018-12-27T14:26:53.068Z,1.30
2018-12-27T14:35:34.534Z,1.30
2018-12-27T14:38:22.919Z,1.30
2018-12-27T14:40:52.280Z,1.30
2018-12-27T14:43:40.675Z,1.30
2018-12-27T14:46:29.062Z,1.30
2018-12-27T14:51:51.908Z,1.30
2018-12-27T14:54:21.403Z,1.30
2018-12-27T14:57:09.790Z,1.20
2018-12-27T14:59:39.218Z,1.30
2018-12-27T15:02:27.595Z,1.40
2018-12-27T15:08:01.771Z,1.30
2018-12-27T15:10:50.371Z,1.30
2018-12-27T15:13:19.694Z,1.20
2018-12-27T15:15:49.099Z,1.30
2018-12-27T15:18:37.546Z,1.30
2018-12-27T15:27:31.500Z,1.30
2018-12-27T15:30:00.877Z,1.30
2018-12-27T15:32:49.304Z,1.20
2018-12-27T15:35:18.668Z,1.30
2018-12-27T15:37:48.066Z,1.20
2018-12-27T15:40:17.406Z,1.20
2018-12-27T15:42:46.778Z,1.20
2018-12-27T15:45:16.099Z,1.30
2018-12-27T15:47:45.515Z,1.30
2018-12-27T15:50:14.855Z,1.40
2018-12-27T15:52:44.323Z,1.30
2018-12-27T15:55:32.697Z,1.20
2018-12-27T15:58:02.110Z,1.10
2018-12-27T16:00:31.466Z,1.10
2018-12-27T16:03:00.838Z,1.20
2018-12-27T16:05:30.169Z,1.10
2018-12-27T16:07:59.494Z,1.20
2018-12-27T16:10:28.884Z,1.20
2018-12-27T16:12:58.231Z,1.20
2018-12-27T16:15:27.574Z,1.20
2018-12-27T16:17:57.004Z,1.20
2018-12-27T16:20:26.342Z,1.20
2018-12-27T16:22:55.747Z,1.30
2018-12-27T16:25:25.075Z,1.20
2018-12-27T16:27:54.411Z,1.30
2018-12-27T16:30:23.740Z,1.30
2018-12-27T16:32:53.165Z,1.30
2018-12-27T16:35:22.496Z,1.30
2018-12-27T16:37:51.851Z,1.30
2018-12-27T16:40:21.280Z,1.30
2018-12-27T16:42:50.639Z,1.20
2018-12-27T16:45:19.994Z,1.30
2018-12-27T16:47:49.534Z,1.20
2018-12-27T16:50:18.979Z,1.20
2018-12-27T16:52:48.390Z,1.30
2018-12-27T16:55:17.714Z,1.30
2018-12-27T16:57:47.049Z,1.30
2018-12-27T17:00:16.410Z,1.20
2018-12-27T17:02:45.816Z,1.30
2018-12-27T17:05:15.214Z,1.30
2018-12-27T17:07:44.679Z,1.30
2018-12-27T17:10:14.082Z,1.30
2018-12-27T17:12:43.500Z,1.20
2018-12-27T17:15:12.827Z,1.20
2018-12-27T17:17:42.171Z,1.20
2018-12-27T17:20:11.511Z,1.20
2018-12-27T17:22:40.858Z,1.20
2018-12-27T17:25:10.373Z,1.10
2018-12-27T17:27:39.786Z,1.10
2018-12-27T17:30:09.355Z,1.10
2018-12-27T17:32:38.696Z,1.10
2018-12-27T17:35:08.026Z,1.00
2018-12-27T17:37:37.376Z,1.10
2018-12-27T17:40:06.918Z,1.10
2018-12-27T17:42:36.294Z,1.10
2018-12-27T17:45:05.778Z,1.10
2018-12-27T17:47:35.145Z,1.10
2018-12-27T17:50:04.473Z,1.10
2018-12-27T17:52:33.883Z,1.10
2018-12-27T17:55:03.224Z,1.20
2018-12-27T17:57:32.740Z,1.20
2018-12-27T18:00:02.176Z,1.30
2018-12-27T18:02:31.554Z,1.30
2018-12-27T18:05:00.911Z,1.20
2018-12-27T18:07:49.295Z,1.20
2018-12-27T18:10:18.670Z,1.30
2018-12-27T18:12:48.096Z,1.30
2018-12-27T18:15:17.439Z,1.20
2018-12-27T18:17:46.780Z,1.20
2018-12-27T18:20:35.146Z,1.20
2018-12-27T18:29:28.531Z,1.20
2018-12-27T18:32:16.970Z,1.10
2018-12-27T18:34:46.330Z,1.10
2018-12-27T18:37:15.734Z,1.20
2018-12-27T18:40:04.395Z,1.10
2018-12-27T18:42:52.790Z,1.20
2018-12-27T18:45:22.123Z,1.10
2018-12-27T18:48:10.531Z,1.20
2018-12-27T18:50:58.978Z,1.20
2018-12-27T18:56:33.343Z,1.20
2018-12-27T18:59:21.712Z,1.10
2018-12-27T19:01:51.123Z,1.20
2018-12-27T19:04:39.502Z,1.10
2018-12-27T19:07:08.915Z,1.10
2018-12-27T19:09:38.240Z,1.10
2018-12-27T19:12:48.827Z,1.10
2018-12-27T19:15:38.876Z,1.00
2018-12-27T19:24:33.283Z,0.90
2018-12-27T19:36:32.126Z,1.00
2018-12-27T19:39:20.533Z,1.00
2018-12-27T19:41:49.871Z,1.00
2018-12-27T19:44:19.268Z,1.00
2018-12-27T19:47:07.751Z,0.90
2018-12-27T19:49:56.186Z,0.90
2018-12-27T19:52:25.574Z,0.80
2018-12-27T19:55:13.963Z,0.80
2018-12-27T20:13:09.198Z,0.70
2018-12-27T20:15:38.532Z,0.80
2018-12-27T20:18:27.062Z,0.70
2018-12-27T20:20:56.390Z,0.70
2018-12-27T20:23:44.834Z,0.70
2018-12-27T20:26:14.211Z,0.60
2018-12-27T20:29:02.607Z,0.60
2018-12-27T20:31:32.018Z,0.70
2018-12-27T20:34:01.387Z,0.70
2018-12-27T20:36:30.719Z,0.70
2018-12-27T20:44:52.810Z,0.50
2018-12-27T20:47:22.150Z,0.50
2018-12-27T20:49:51.490Z,0.50
2018-12-27T20:52:20.898Z,0.60
2018-12-27T20:54:50.271Z,0.60
2018-12-27T20:57:38.646Z,0.60
2018-12-27T21:00:28.674Z,0.70
2018-12-27T21:03:17.263Z,0.60
2018-12-27T21:05:46.658Z,0.50
2018-12-27T21:08:15.974Z,0.50
2018-12-27T21:10:45.307Z,0.50
2018-12-27T21:13:14.641Z,0.50
2018-12-27T21:15:44.043Z,0.40
2018-12-27T21:18:13.380Z,0.40
2018-12-27T21:20:42.786Z,0.50
2018-12-27T21:23:12.110Z,0.50
2018-12-27T21:25:41.443Z,0.50
2018-12-27T21:28:10.774Z,0.50
2018-12-27T21:30:40.102Z,0.50
2018-12-27T21:33:09.463Z,0.40
2018-12-27T21:35:38.859Z,0.40
2018-12-27T21:38:08.196Z,0.50
2018-12-27T21:40:37.603Z,0.50
2018-12-27T21:43:06.933Z,0.40
2018-12-27T21:45:36.731Z,0.40
2018-12-27T21:48:06.189Z,0.30
2018-12-27T21:50:35.510Z,0.30
2018-12-27T21:53:04.841Z,0.30
2018-12-27T21:55:34.170Z,0.30
2018-12-27T21:58:03.501Z,0.30
2018-12-27T22:00:32.834Z,0.30
2018-12-27T22:03:02.245Z,0.30
2018-12-27T22:05:31.565Z,0.30
2018-12-27T22:08:00.888Z,0.30
2018-12-27T22:10:30.220Z,0.30
2018-12-27T22:12:59.543Z,0.30
2018-12-27T22:15:28.879Z,0.30
2018-12-27T22:17:58.287Z,0.40
2018-12-27T22:20:27.614Z,0.40
2018-12-27T22:22:56.958Z,0.30
2018-12-27T22:25:26.290Z,0.30
2018-12-27T22:27:55.655Z,0.40
2018-12-27T22:30:25.047Z,0.40
2018-12-27T22:32:54.444Z,0.40
2018-12-27T22:35:23.860Z,0.30
2018-12-27T22:37:53.258Z,0.30
2018-12-27T22:40:22.599Z,0.40
2018-12-27T22:42:52.016Z,0.40
2018-12-27T22:45:21.356Z,0.40
2018-12-27T22:47:50.759Z,0.40
2018-12-27T22:50:20.165Z,0.40
2018-12-27T22:52:49.566Z,0.30
2018-12-27T22:55:18.903Z,0.40
2018-12-27T22:57:48.303Z,0.30
2018-12-27T23:00:27.447Z,0.30
2018-12-27T23:02:56.779Z,0.30
2018-12-27T23:05:26.251Z,0.20
2018-12-27T23:07:55.578Z,0.20
2018-12-27T23:10:24.910Z,0.20
2018-12-27T23:12:54.247Z,0.20
2018-12-27T23:15:23.645Z,0.20
2018-12-27T23:17:53.038Z,0.10
2018-12-27T23:20:22.438Z,0.10
2018-12-27T23:22:51.766Z,0.20
2018-12-27T23:25:21.108Z,0.20
2018-12-27T23:27:50.444Z,0.20
2018-12-27T23:30:19.834Z,0.10
2018-12-27T23:32:49.159Z,0.10
2018-12-27T23:35:18.555Z,0.20
2018-12-27T23:37:47.884Z,0.20
2018-12-27T23:40:17.217Z,0.30
2018-12-27T23:42:46.836Z,0.20
2018-12-27T23:45:16.163Z,0.20
2018-12-27T23:47:45.495Z,0.20
2018-12-27T23:50:14.833Z,0.20
2018-12-27T23:52:44.173Z,0.10
2018-12-27T23:55:13.570Z,0.10
2018-12-27T23:57:42.894Z,0.00
